Time;durP1;ratioP1;P1;durP2;ratioP2;P2;SDS_P1;SDS_P2;PMS_P1;PMS_P2;Temp;Humidity;BMP_temperature;BMP_pressure;BME280_temperature;BME280_humidity;BME280_pressure;Samples;Min_cycle;Max_cycle;Signal;HPM_P1;HPM_P2
2023/07/13 00:02:11;;;;;;;;;;;25.40;49.00;;;;;;4984017;28;20029;-71
2023/07/13 00:04:39;;;;;;;;;;;25.40;49.00;;;;;;4984193;28;20412;-71
2023/07/13 00:07:05;;;;;;;;;;;25.40;49.00;;;;;;4984249;28;19934;-71
2023/07/13 00:09:32;;;;;;;;;;;25.30;48.80;;;;;;4981765;28;19930;-71
2023/07/13 00:11:58;;;;;;;;;;;25.30;48.80;;;;;;4980614;28;20610;-70
2023/07/13 00:14:25;;;;;;;;;;;25.30;48.70;;;;;;4983297;28;19930;-70
2023/07/13 00:16:52;;;;;;;;;;;25.30;48.60;;;;;;4983289;28;20011;-71
2023/07/13 00:19:18;;;;;;;;;;;25.20;48.60;;;;;;4984154;28;19940;-71
2023/07/13 00:21:47;;;;;;;;;;;25.10;48.50;;;;;;4985762;28;19929;-70
2023/07/13 00:24:15;;;;;;;;;;;25.10;48.50;;;;;;4984891;28;19938;-72
2023/07/13 00:26:45;;;;;;;;;;;25.10;48.60;;;;;;4983561;28;19930;-72
2023/07/13 00:29:12;;;;;;;;;;;25.10;48.50;;;;;;4984974;28;20029;-72
2023/07/13 00:31:39;;;;;;;;;;;25.00;48.40;;;;;;4985213;28;19988;-72
2023/07/13 00:34:05;;;;;;;;;;;25.00;48.50;;;;;;4983279;28;19929;-72
2023/07/13 00:36:32;;;;;;;;;;;25.00;48.40;;;;;;4983054;28;19984;-71
2023/07/13 00:39:00;;;;;;;;;;;24.90;48.40;;;;;;4984029;28;19999;-72
2023/07/13 00:41:27;;;;;;;;;;;24.90;48.50;;;;;;4985143;28;20631;-71
2023/07/13 00:43:53;;;;;;;;;;;24.90;48.60;;;;;;4981078;28;20413;-72
2023/07/13 00:46:22;;;;;;;;;;;24.80;48.70;;;;;;4984803;28;19962;-72
2023/07/13 00:48:49;;;;;;;;;;;24.80;48.80;;;;;;4978267;28;19941;-71
2023/07/13 00:51:17;;;;;;;;;;;24.80;48.90;;;;;;4983471;28;20467;-72
2023/07/13 00:53:43;;;;;;;;;;;24.80;49.10;;;;;;4981832;28;19934;-72
2023/07/13 00:56:11;;;;;;;;;;;24.70;49.20;;;;;;4985028;28;19933;-72
2023/07/13 00:58:38;;;;;;;;;;;24.70;49.30;;;;;;4996688;28;19937;-72
2023/07/13 01:01:05;;;;;;;;;;;24.70;49.50;;;;;;4989799;28;19933;-71
2023/07/13 01:03:32;;;;;;;;;;;24.70;49.60;;;;;;4991366;28;19937;-72
2023/07/13 01:05:59;;;;;;;;;;;24.60;49.70;;;;;;4990392;28;19933;-72
2023/07/13 01:08:25;;;;;;;;;;;24.60;49.80;;;;;;4990016;28;19930;-72
2023/07/13 01:10:52;;;;;;;;;;;24.50;49.90;;;;;;4987364;28;19961;-72
2023/07/13 01:13:20;;;;;;;;;;;24.60;50.10;;;;;;4991179;28;19976;-72
2023/07/13 01:15:48;;;;;;;;;;;24.50;50.20;;;;;;4989289;28;19937;-72
2023/07/13 01:18:15;;;;;;;;;;;24.40;50.80;;;;;;4993472;28;19992;-72
2023/07/13 01:20:42;;;;;;;;;;;24.40;50.40;;;;;;4992497;28;19930;-73
2023/07/13 01:23:12;;;;;;;;;;;24.40;50.50;;;;;;4988055;28;19930;-72
2023/07/13 01:25:39;;;;;;;;;;;24.30;50.50;;;;;;4985339;28;19952;-71
2023/07/13 01:28:08;;;;;;;;;;;24.30;50.70;;;;;;4991858;28;19938;-71
2023/07/13 01:30:35;;;;;;;;;;;24.30;50.70;;;;;;4990130;28;20046;-72
2023/07/13 01:33:03;;;;;;;;;;;24.20;51.40;;;;;;4990438;28;19973;-71
2023/07/13 01:35:30;;;;;;;;;;;24.20;50.90;;;;;;4991060;28;19972;-72
2023/07/13 01:37:57;;;;;;;;;;;24.20;51.00;;;;;;4991286;28;19938;-71
2023/07/13 01:40:25;;;;;;;;;;;24.20;51.20;;;;;;4988051;28;20024;-72
2023/07/13 01:42:51;;;;;;;;;;;24.20;51.20;;;;;;4987371;28;19934;-72
2023/07/13 01:45:18;;;;;;;;;;;24.10;51.30;;;;;;4987523;28;19995;-72
2023/07/13 01:47:44;;;;;;;;;;;24.10;51.40;;;;;;4990448;28;19976;-71
2023/07/13 01:50:11;;;;;;;;;;;24.10;51.40;;;;;;4990467;28;19929;-71
2023/07/13 01:52:37;;;;;;;;;;;24.00;51.50;;;;;;4987524;28;19929;-71
2023/07/13 01:55:04;;;;;;;;;;;24.00;51.50;;;;;;4989845;28;19929;-72
2023/07/13 01:57:33;;;;;;;;;;;24.00;51.60;;;;;;4990428;28;19964;-71
2023/07/13 01:59:59;;;;;;;;;;;24.00;51.60;;;;;;4987551;28;20009;-72
2023/07/13 02:02:26;;;;;;;;;;;23.90;51.60;;;;;;4989439;28;20593;-72
2023/07/13 02:04:52;;;;;;;;;;;23.90;51.70;;;;;;4990932;28;19984;-71
2023/07/13 02:07:19;;;;;;;;;;;23.80;51.60;;;;;;4986824;28;19937;-72
2023/07/13 02:09:46;;;;;;;;;;;23.80;51.70;;;;;;4988395;28;19929;-71
2023/07/13 02:12:12;;;;;;;;;;;23.80;51.70;;;;;;4987462;28;20281;-72
2023/07/13 02:14:40;;;;;;;;;;;23.80;51.80;;;;;;4984775;28;19941;-71
2023/07/13 02:17:07;;;;;;;;;;;23.80;51.90;;;;;;4982830;28;19933;-73
2023/07/13 02:19:33;;;;;;;;;;;23.70;51.90;;;;;;4984445;28;19933;-72
2023/07/13 02:22:00;;;;;;;;;;;23.70;51.90;;;;;;4987669;28;20283;-71
2023/07/13 02:24:27;;;;;;;;;;;23.70;51.90;;;;;;4985070;28;19933;-71
2023/07/13 02:26:53;;;;;;;;;;;23.60;51.90;;;;;;4980007;28;20327;-72
2023/07/13 02:29:20;;;;;;;;;;;23.60;52.00;;;;;;4986242;28;19930;-72
2023/07/13 02:31:48;;;;;;;;;;;23.60;52.10;;;;;;4986578;28;20404;-72
2023/07/13 02:34:14;;;;;;;;;;;23.50;52.70;;;;;;4985265;28;20396;-72
2023/07/13 02:36:41;;;;;;;;;;;23.50;52.20;;;;;;4985865;28;19929;-72
2023/07/13 02:39:13;;;;;;;;;;;23.50;52.20;;;;;;4983327;28;19930;-71
2023/07/13 02:41:39;;;;;;;;;;;23.50;52.30;;;;;;4987543;28;19937;-72
2023/07/13 02:44:08;;;;;;;;;;;23.40;52.40;;;;;;4985672;28;19929;-72
2023/07/13 02:46:35;;;;;;;;;;;23.40;52.40;;;;;;4986597;28;20025;-71
2023/07/13 02:49:03;;;;;;;;;;;23.40;52.50;;;;;;4984116;28;19929;-72
2023/07/13 02:51:30;;;;;;;;;;;23.30;52.50;;;;;;4983914;28;19930;-71
2023/07/13 02:53:57;;;;;;;;;;;23.30;52.60;;;;;;4984917;28;20407;-71
2023/07/13 02:56:25;;;;;;;;;;;23.30;52.80;;;;;;4985630;28;20426;-72
2023/07/13 02:58:52;;;;;;;;;;;23.30;52.80;;;;;;4986959;28;19930;-72
2023/07/13 03:01:18;;;;;;;;;;;23.20;52.80;;;;;;4980179;28;20294;-71
2023/07/13 03:03:45;;;;;;;;;;;23.20;53.00;;;;;;4987414;28;20017;-72
2023/07/13 03:06:13;;;;;;;;;;;23.20;53.00;;;;;;4986951;28;20637;-72
2023/07/13 03:08:40;;;;;;;;;;;23.20;53.10;;;;;;4983205;28;19930;-72
2023/07/13 03:11:07;;;;;;;;;;;23.10;53.10;;;;;;4984296;28;19984;-72
2023/07/13 03:13:34;;;;;;;;;;;23.00;53.20;;;;;;4987244;28;19936;-73
2023/07/13 03:16:01;;;;;;;;;;;23.00;53.20;;;;;;4982253;28;19937;-72
2023/07/13 03:18:28;;;;;;;;;;;23.00;53.30;;;;;;4981681;28;20038;-72
2023/07/13 03:20:55;;;;;;;;;;;23.00;53.40;;;;;;4977556;28;19934;-71
2023/07/13 03:23:23;;;;;;;;;;;22.90;53.40;;;;;;4985741;28;19929;-72
2023/07/13 03:25:49;;;;;;;;;;;22.90;53.50;;;;;;4985783;28;19930;-71
2023/07/13 03:28:16;;;;;;;;;;;22.90;53.60;;;;;;4986289;28;19929;-72
2023/07/13 03:30:42;;;;;;;;;;;22.90;53.60;;;;;;4985171;28;19945;-72
2023/07/13 03:33:09;;;;;;;;;;;22.80;53.60;;;;;;4984588;28;19933;-72
2023/07/13 03:35:36;;;;;;;;;;;22.80;53.70;;;;;;4983937;28;19930;-71
2023/07/13 03:38:02;;;;;;;;;;;22.80;53.80;;;;;;4985239;28;19933;-72
2023/07/13 03:40:30;;;;;;;;;;;22.70;53.80;;;;;;4982800;28;20020;-71
2023/07/13 03:42:57;;;;;;;;;;;22.70;53.90;;;;;;4982522;28;19936;-72
2023/07/13 03:45:23;;;;;;;;;;;22.70;53.90;;;;;;4985059;28;20526;-70
2023/07/13 03:47:50;;;;;;;;;;;22.60;53.90;;;;;;4985760;28;20225;-72
2023/07/13 03:50:16;;;;;;;;;;;22.60;54.00;;;;;;4977608;28;19993;-72
2023/07/13 03:52:43;;;;;;;;;;;22.60;54.00;;;;;;4985501;28;19944;-71
2023/07/13 03:55:09;;;;;;;;;;;22.60;54.10;;;;;;4985188;28;19984;-73
2023/07/13 03:57:37;;;;;;;;;;;22.50;54.10;;;;;;4984873;28;19936;-71
2023/07/13 04:00:05;;;;;;;;;;;22.50;54.20;;;;;;4984074;28;19941;-72
2023/07/13 04:02:32;;;;;;;;;;;22.40;54.20;;;;;;4985208;28;20331;-72
2023/07/13 04:04:58;;;;;;;;;;;22.50;54.30;;;;;;4986190;28;19930;-71
2023/07/13 04:07:25;;;;;;;;;;;22.40;54.40;;;;;;4985073;28;19934;-71
2023/07/13 04:09:52;;;;;;;;;;;22.40;54.40;;;;;;4980924;28;19930;-71
2023/07/13 04:12:18;;;;;;;;;;;22.30;54.40;;;;;;4984479;28;19929;-72
2023/07/13 04:14:46;;;;;;;;;;;22.30;54.50;;;;;;4983626;28;19932;-71
2023/07/13 04:17:13;;;;;;;;;;;22.30;54.60;;;;;;4981910;28;19977;-70
2023/07/13 04:19:39;;;;;;;;;;;22.30;54.70;;;;;;4985176;28;19977;-71
2023/07/13 04:22:06;;;;;;;;;;;22.20;54.70;;;;;;4981126;28;19938;-71
2023/07/13 04:24:33;;;;;;;;;;;22.20;54.80;;;;;;4984178;28;19937;-70
2023/07/13 04:27:00;;;;;;;;;;;22.20;54.80;;;;;;4986579;28;19930;-72
2023/07/13 04:29:26;;;;;;;;;;;22.20;54.90;;;;;;4982165;28;19938;-71
2023/07/13 04:31:54;;;;;;;;;;;22.10;54.90;;;;;;4984121;28;19995;-70
2023/07/13 04:34:21;;;;;;;;;;;22.10;55.00;;;;;;4984773;28;19961;-70
2023/07/13 04:36:47;;;;;;;;;;;22.10;55.10;;;;;;4982386;28;20487;-71
2023/07/13 04:39:14;;;;;;;;;;;22.10;55.20;;;;;;4984154;28;19988;-71
2023/07/13 04:41:40;;;;;;;;;;;22.00;55.20;;;;;;4980058;28;19934;-70
2023/07/13 04:44:07;;;;;;;;;;;22.00;55.20;;;;;;4984269;28;20384;-70
2023/07/13 04:46:33;;;;;;;;;;;22.00;55.30;;;;;;4977435;28;19930;-70
2023/07/13 04:49:03;;;;;;;;;;;22.00;55.30;;;;;;4984146;28;19980;-71
2023/07/13 04:51:30;;;;;;;;;;;21.90;55.30;;;;;;4984591;28;19938;-71
2023/07/13 04:53:56;;;;;;;;;;;21.90;55.40;;;;;;4982866;28;19976;-69
2023/07/13 04:56:23;;;;;;;;;;;21.90;55.50;;;;;;4983196;28;19987;-70
2023/07/13 04:58:49;;;;;;;;;;;21.70;56.60;;;;;;4975391;28;20399;-72
2023/07/13 05:01:16;;;;;;;;;;;21.30;58.50;;;;;;4982198;28;19984;-72
2023/07/13 05:03:42;;;;;;;;;;;21.20;58.40;;;;;;4977714;28;19929;-72
2023/07/13 05:06:10;;;;;;;;;;;21.10;58.40;;;;;;4982488;28;19933;-73
2023/07/13 05:08:37;;;;;;;;;;;21.10;58.40;;;;;;4982842;28;19969;-73
2023/07/13 05:11:04;;;;;;;;;;;21.20;58.40;;;;;;4982219;28;20655;-73
2023/07/13 05:13:31;;;;;;;;;;;21.20;58.30;;;;;;4982742;28;19940;-73
2023/07/13 05:15:58;;;;;;;;;;;21.20;58.30;;;;;;4981999;28;19930;-72
2023/07/13 05:18:25;;;;;;;;;;;21.20;58.30;;;;;;4984479;28;20437;-72
2023/07/13 05:20:58;;;;;;;;;;;21.20;58.20;;;;;;4981201;28;19933;-73
2023/07/13 05:23:26;;;;;;;;;;;21.30;58.20;;;;;;4984328;28;19936;-71
2023/07/13 05:25:53;;;;;;;;;;;21.30;58.20;;;;;;4984268;28;19936;-73
2023/07/13 05:28:20;;;;;;;;;;;21.30;58.20;;;;;;4983380;28;19937;-71
2023/07/13 05:30:47;;;;;;;;;;;21.30;58.30;;;;;;4983522;28;19930;-72
2023/07/13 05:33:13;;;;;;;;;;;21.30;58.20;;;;;;4979760;28;19930;-72
2023/07/13 05:35:40;;;;;;;;;;;21.30;58.30;;;;;;4984212;28;20020;-72
2023/07/13 05:38:06;;;;;;;;;;;21.30;58.40;;;;;;4985548;28;19930;-73
2023/07/13 05:40:34;;;;;;;;;;;21.30;58.50;;;;;;4980301;28;20498;-72
2023/07/13 05:43:01;;;;;;;;;;;21.30;58.50;;;;;;4983364;28;19992;-73
2023/07/13 05:45:28;;;;;;;;;;;21.30;58.50;;;;;;4987521;28;20014;-71
2023/07/13 05:47:54;;;;;;;;;;;21.30;58.60;;;;;;4986726;28;20368;-72
2023/07/13 05:50:21;;;;;;;;;;;21.30;58.60;;;;;;4988161;28;20177;-72
2023/07/13 05:52:47;;;;;;;;;;;21.30;58.60;;;;;;4987138;28;19936;-72
2023/07/13 05:55:14;;;;;;;;;;;21.30;58.70;;;;;;4988164;28;19977;-72
2023/07/13 05:57:42;;;;;;;;;;;21.30;58.70;;;;;;4979547;28;19929;-71
2023/07/13 06:00:09;;;;;;;;;;;21.30;58.70;;;;;;4985432;28;19936;-72
2023/07/13 06:02:36;;;;;;;;;;;21.30;58.80;;;;;;4979515;28;19988;-72
2023/07/13 06:05:03;;;;;;;;;;;21.30;58.80;;;;;;4986396;28;19965;-72
2023/07/13 06:07:30;;;;;;;;;;;21.30;58.90;;;;;;4986768;28;20571;-71
2023/07/13 06:09:56;;;;;;;;;;;21.30;58.90;;;;;;4987875;28;19966;-71
2023/07/13 06:12:23;;;;;;;;;;;21.30;58.90;;;;;;4985928;28;19996;-72
2023/07/13 06:14:51;;;;;;;;;;;21.40;59.00;;;;;;4983291;28;19958;-72
2023/07/13 06:17:17;;;;;;;;;;;21.30;58.90;;;;;;4987214;28;19936;-72
2023/07/13 06:19:44;;;;;;;;;;;21.30;59.50;;;;;;4984956;28;20280;-72
2023/07/13 06:22:11;;;;;;;;;;;21.40;58.90;;;;;;4988315;28;20032;-72
2023/07/13 06:24:37;;;;;;;;;;;21.40;58.90;;;;;;4985296;28;19930;-72
2023/07/13 06:27:04;;;;;;;;;;;21.40;58.80;;;;;;4988111;28;19929;-72
2023/07/13 06:29:31;;;;;;;;;;;21.40;58.70;;;;;;4986090;28;19934;-72
2023/07/13 06:31:59;;;;;;;;;;;21.40;58.50;;;;;;4986652;28;19929;-72
2023/07/13 06:34:25;;;;;;;;;;;21.40;58.30;;;;;;4983407;28;19930;-72
2023/07/13 06:36:52;;;;;;;;;;;21.40;58.20;;;;;;4985523;28;19993;-72
2023/07/13 06:39:18;;;;;;;;;;;21.40;58.10;;;;;;4988636;28;20426;-72
2023/07/13 06:41:45;;;;;;;;;;;21.40;57.90;;;;;;4987091;28;19958;-72
2023/07/13 06:44:12;;;;;;;;;;;21.40;57.90;;;;;;4982910;28;20420;-72
2023/07/13 06:46:38;;;;;;;;;;;21.40;57.80;;;;;;4983402;28;19953;-72
2023/07/13 06:49:06;;;;;;;;;;;21.40;57.70;;;;;;4986696;28;20587;-72
2023/07/13 06:51:32;;;;;;;;;;;21.40;57.70;;;;;;4982258;28;19980;-72
2023/07/13 06:53:59;;;;;;;;;;;21.40;57.60;;;;;;4982747;28;19944;-72
2023/07/13 06:56:25;;;;;;;;;;;21.50;57.50;;;;;;4986907;28;20335;-72
2023/07/13 06:58:52;;;;;;;;;;;21.40;57.40;;;;;;4986677;28;19933;-73
2023/07/13 07:01:18;;;;;;;;;;;21.50;57.30;;;;;;4976072;28;19984;-72
2023/07/13 07:03:45;;;;;;;;;;;21.50;57.20;;;;;;4985133;28;19952;-73
2023/07/13 07:06:15;;;;;;;;;;;21.50;57.10;;;;;;4987046;28;20033;-72
2023/07/13 07:08:41;;;;;;;;;;;21.50;57.00;;;;;;4985921;28;20117;-72
2023/07/13 07:11:09;;;;;;;;;;;21.50;57.00;;;;;;4984309;28;19936;-72
2023/07/13 07:13:36;;;;;;;;;;;21.50;57.00;;;;;;4985099;28;20717;-72
2023/07/13 07:16:03;;;;;;;;;;;21.50;56.90;;;;;;4984564;28;19929;-72
2023/07/13 07:18:29;;;;;;;;;;;21.50;56.80;;;;;;4983683;28;20391;-73
2023/07/13 07:20:56;;;;;;;;;;;21.60;56.80;;;;;;4986332;28;20459;-72
2023/07/13 07:23:24;;;;;;;;;;;21.60;56.70;;;;;;4989109;28;19930;-72
2023/07/13 07:25:51;;;;;;;;;;;21.60;56.60;;;;;;4986159;28;19929;-73
2023/07/13 07:28:18;;;;;;;;;;;21.60;56.60;;;;;;4986596;28;19941;-72
2023/07/13 07:30:45;;;;;;;;;;;21.70;56.50;;;;;;4983058;28;20032;-72
2023/07/13 07:33:12;;;;;;;;;;;21.70;56.40;;;;;;4984758;28;19937;-72
2023/07/13 07:35:38;;;;;;;;;;;21.60;56.20;;;;;;4979385;28;19933;-72
2023/07/13 07:38:05;;;;;;;;;;;21.70;56.20;;;;;;4985847;28;19937;-72
2023/07/13 07:40:37;;;;;;;;;;;21.70;56.10;;;;;;4986214;28;19951;-72
2023/07/13 07:43:03;;;;;;;;;;;21.70;56.10;;;;;;4982166;28;20299;-72
2023/07/13 07:45:30;;;;;;;;;;;21.70;56.00;;;;;;4984236;28;19933;-72
2023/07/13 07:47:58;;;;;;;;;;;21.70;55.90;;;;;;4980944;28;19938;-72
2023/07/13 07:50:25;;;;;;;;;;;21.70;55.80;;;;;;4982227;28;19934;-73
2023/07/13 07:52:52;;;;;;;;;;;21.80;55.70;;;;;;4982482;28;19925;-72
2023/07/13 07:55:18;;;;;;;;;;;21.80;55.60;;;;;;4985871;28;19930;-73
2023/07/13 07:57:46;;;;;;;;;;;21.80;55.50;;;;;;4988617;28;19960;-72
2023/07/13 08:00:13;;;;;;;;;;;21.80;55.40;;;;;;4982436;28;20489;-72
2023/07/13 08:02:41;;;;;;;;;;;21.90;55.30;;;;;;4979806;28;19933;-72
2023/07/13 08:05:08;;;;;;;;;;;21.90;55.10;;;;;;4986738;28;19987;-72
2023/07/13 08:07:34;;;;;;;;;;;21.90;55.10;;;;;;4982348;28;20288;-72
2023/07/13 08:10:01;;;;;;;;;;;21.90;55.00;;;;;;4982235;28;20043;-72
2023/07/13 08:12:27;;;;;;;;;;;21.90;55.00;;;;;;4985638;28;19976;-71
2023/07/13 08:14:57;;;;;;;;;;;21.90;54.90;;;;;;4981888;28;19930;-72
2023/07/13 08:17:24;;;;;;;;;;;22.00;54.80;;;;;;4981168;28;19937;-72
2023/07/13 08:19:50;;;;;;;;;;;22.00;54.70;;;;;;4981508;28;19929;-73
2023/07/13 08:22:17;;;;;;;;;;;22.00;54.60;;;;;;4989098;28;20713;-72
2023/07/13 08:24:43;;;;;;;;;;;22.10;54.60;;;;;;4983558;28;19934;-72
2023/07/13 08:27:11;;;;;;;;;;;22.10;54.30;;;;;;4981739;28;19937;-71
2023/07/13 08:29:37;;;;;;;;;;;22.10;54.30;;;;;;4985049;28;19930;-71
2023/07/13 08:32:08;;;;;;;;;;;22.10;54.20;;;;;;4978913;28;19937;-72
2023/07/13 08:34:35;;;;;;;;;;;22.10;53.90;;;;;;4978887;28;19940;-72
2023/07/13 08:37:02;;;;;;;;;;;22.20;53.80;;;;;;4982532;28;19937;-73
2023/07/13 08:39:30;;;;;;;;;;;22.20;53.70;;;;;;4980159;28;19979;-73
2023/07/13 08:41:59;;;;;;;;;;;22.20;53.60;;;;;;4980138;28;19929;-72
2023/07/13 08:44:30;;;;;;;;;;;22.20;53.20;;;;;;4985586;28;19933;-72
2023/07/13 08:46:59;;;;;;;;;;;22.30;53.00;;;;;;4984699;28;19930;-72
2023/07/13 08:49:27;;;;;;;;;;;22.30;53.00;;;;;;4985163;28;19933;-72
2023/07/13 08:51:55;;;;;;;;;;;22.30;53.00;;;;;;4976311;28;20449;-72
2023/07/13 08:54:23;;;;;;;;;;;22.40;52.80;;;;;;4987631;28;20747;-72
2023/07/13 08:56:52;;;;;;;;;;;22.40;52.70;;;;;;4983466;28;19930;-71
2023/07/13 08:59:21;;;;;;;;;;;22.40;52.50;;;;;;4990541;28;19929;-72
2023/07/13 09:01:54;;;;;;;;;;;22.40;52.60;;;;;;4983955;28;19929;-72
2023/07/13 09:04:22;;;;;;;;;;;22.50;52.40;;;;;;4984581;28;19936;-72
2023/07/13 09:06:59;;;;;;;;;;;22.50;52.40;;;;;;4979205;28;20402;-72
2023/07/13 09:09:33;;;;;;;;;;;22.60;52.20;;;;;;4980136;28;19969;-72
2023/07/13 09:12:02;;;;;;;;;;;22.60;52.20;;;;;;4982494;28;20004;-72
2023/07/13 09:14:40;;;;;;;;;;;22.60;51.90;;;;;;4984948;28;19930;-72
2023/07/13 09:17:12;;;;;;;;;;;22.70;51.90;;;;;;4986536;28;20013;-71
2023/07/13 09:19:40;;;;;;;;;;;22.70;51.80;;;;;;4985720;28;19933;-72
2023/07/13 09:22:11;;;;;;;;;;;22.70;51.50;;;;;;4989237;28;19934;-72
2023/07/13 09:24:40;;;;;;;;;;;22.80;51.40;;;;;;4986294;28;19934;-73
2023/07/13 09:27:13;;;;;;;;;;;22.80;51.20;;;;;;4989914;28;20008;-71
2023/07/13 09:29:44;;;;;;;;;;;22.90;51.00;;;;;;4985898;28;19977;-72
2023/07/13 09:32:13;;;;;;;;;;;22.90;50.80;;;;;;4982255;28;20289;-72
2023/07/13 09:34:39;;;;;;;;;;;23.00;50.60;;;;;;4986387;28;20435;-72
2023/07/13 09:37:06;;;;;;;;;;;23.00;50.70;;;;;;4987283;28;19930;-72
2023/07/13 09:39:36;;;;;;;;;;;23.00;50.60;;;;;;4986235;28;19953;-72
2023/07/13 09:42:07;;;;;;;;;;;23.10;50.50;;;;;;4987685;28;19926;-72
2023/07/13 09:44:35;;;;;;;;;;;23.10;50.00;;;;;;4988014;28;19937;-72
2023/07/13 09:47:01;;;;;;;;;;;23.20;49.90;;;;;;4985914;28;20848;-72
2023/07/13 09:49:29;;;;;;;;;;;23.30;49.80;;;;;;4981369;28;19984;-72
2023/07/13 09:52:00;;;;;;;;;;;23.30;49.60;;;;;;4983999;28;20502;-71
2023/07/13 09:54:27;;;;;;;;;;;23.40;49.40;;;;;;4987975;28;19969;-72
2023/07/13 09:56:59;;;;;;;;;;;23.40;49.40;;;;;;4982424;28;20380;-72
2023/07/13 09:59:29;;;;;;;;;;;23.40;49.40;;;;;;4986922;28;19936;-72
2023/07/13 10:01:56;;;;;;;;;;;23.50;49.20;;;;;;4977060;28;20670;-72
2023/07/13 10:04:27;;;;;;;;;;;23.50;48.80;;;;;;4986782;28;19977;-72
2023/07/13 10:07:05;;;;;;;;;;;23.60;48.80;;;;;;4983936;28;19930;-72
2023/07/13 10:09:32;;;;;;;;;;;23.70;48.50;;;;;;4984086;28;19929;-72
2023/07/13 10:12:00;;;;;;;;;;;23.70;48.40;;;;;;4988562;28;19930;-72
2023/07/13 10:14:26;;;;;;;;;;;23.80;48.60;;;;;;4980798;28;20388;-73
2023/07/13 10:16:56;;;;;;;;;;;23.80;48.40;;;;;;4982629;28;19938;-72
2023/07/13 10:19:25;;;;;;;;;;;23.90;48.30;;;;;;4986945;28;19933;-74
2023/07/13 10:21:55;;;;;;;;;;;24.00;48.40;;;;;;4989693;28;20604;-74
2023/07/13 10:24:23;;;;;;;;;;;24.00;48.40;;;;;;4985746;28;19929;-72
2023/07/13 10:26:55;;;;;;;;;;;24.00;48.20;;;;;;4988575;28;20343;-72
2023/07/13 10:29:24;;;;;;;;;;;24.10;48.10;;;;;;4982791;28;19930;-73
2023/07/13 10:31:51;;;;;;;;;;;24.20;48.00;;;;;;4986023;28;19929;-73
2023/07/13 10:34:18;;;;;;;;;;;24.20;48.00;;;;;;4978632;28;19977;-73
2023/07/13 10:36:45;;;;;;;;;;;24.30;47.80;;;;;;4984113;28;20021;-72
2023/07/13 10:39:16;;;;;;;;;;;24.30;47.80;;;;;;4986857;28;19933;-73
2023/07/13 10:41:45;;;;;;;;;;;24.30;47.40;;;;;;4982612;28;19981;-72
2023/07/13 10:44:16;;;;;;;;;;;24.50;47.10;;;;;;4987177;28;19934;-72
2023/07/13 10:46:44;;;;;;;;;;;24.50;46.80;;;;;;4987081;28;19934;-73
2023/07/13 10:49:12;;;;;;;;;;;24.60;46.80;;;;;;4983446;28;19930;-72
2023/07/13 10:51:39;;;;;;;;;;;24.70;47.00;;;;;;4978948;28;19940;-73
2023/07/13 10:54:16;;;;;;;;;;;24.70;46.90;;;;;;4987481;28;19930;-74
2023/07/13 10:56:43;;;;;;;;;;;24.70;46.40;;;;;;4982722;28;19980;-72
2023/07/13 10:59:12;;;;;;;;;;;24.80;47.00;;;;;;4989579;28;20403;-73
2023/07/13 11:01:47;;;;;;;;;;;24.90;46.40;;;;;;4979739;28;20092;-72
2023/07/13 11:04:23;;;;;;;;;;;24.90;46.60;;;;;;4986348;28;19992;-72
2023/07/13 11:06:51;;;;;;;;;;;25.00;46.60;;;;;;4987714;28;19936;-73
2023/07/13 11:09:19;;;;;;;;;;;25.10;45.90;;;;;;4980614;28;19989;-72
2023/07/13 11:11:46;;;;;;;;;;;25.10;46.00;;;;;;4982234;28;19929;-72
2023/07/13 11:14:30;;;;;;;;;;;25.10;45.60;;;;;;4984458;28;19937;-72
2023/07/13 11:16:57;;;;;;;;;;;25.20;45.80;;;;;;4983712;28;19941;-74
2023/07/13 11:19:41;;;;;;;;;;;25.20;45.80;;;;;;4984296;28;20674;-72
2023/07/13 11:22:16;;;;;;;;;;;25.20;45.70;;;;;;4993035;28;19929;-72
2023/07/13 11:25:06;;;;;;;;;;;25.30;45.20;;;;;;4982604;28;19977;-73
2023/07/13 11:27:41;;;;;;;;;;;25.30;45.40;;;;;;4975807;28;19930;-72
2023/07/13 11:30:29;;;;;;;;;;;25.40;45.80;;;;;;4981047;28;20012;-72
2023/07/13 11:33:12;;;;;;;;;;;25.40;46.00;;;;;;4976080;28;19929;-71
2023/07/13 11:35:43;;;;;;;;;;;25.40;45.70;;;;;;4983729;28;19936;-73
2023/07/13 11:38:14;;;;;;;;;;;25.50;46.20;;;;;;4980863;28;19934;-73
2023/07/13 11:40:41;;;;;;;;;;;25.50;45.50;;;;;;4979740;28;20037;-73
2023/07/13 11:43:08;;;;;;;;;;;25.50;45.20;;;;;;4980481;28;19933;-73
2023/07/13 11:45:35;;;;;;;;;;;25.50;45.30;;;;;;4977414;28;20438;-73
2023/07/13 11:48:02;;;;;;;;;;;25.60;45.50;;;;;;4983299;28;19929;-73
2023/07/13 11:50:28;;;;;;;;;;;25.60;45.60;;;;;;4981138;28;19933;-73
2023/07/13 11:52:59;;;;;;;;;;;25.60;45.20;;;;;;4985277;28;19930;-73
2023/07/13 11:55:27;;;;;;;;;;;25.60;45.50;;;;;;4984904;28;19937;-72
2023/07/13 11:57:57;;;;;;;;;;;25.70;45.30;;;;;;4982328;28;19944;-73
2023/07/13 12:00:27;;;;;;;;;;;25.70;45.20;;;;;;4976782;28;19933;-73
2023/07/13 12:02:55;;;;;;;;;;;25.80;45.50;;;;;;4980387;28;20045;-73
2023/07/13 12:05:21;;;;;;;;;;;25.90;44.90;;;;;;4985210;28;19930;-73
2023/07/13 12:07:49;;;;;;;;;;;25.90;44.50;;;;;;4985119;28;19938;-73
2023/07/13 12:10:20;;;;;;;;;;;26.00;45.10;;;;;;4986432;28;20324;-72
2023/07/13 12:12:47;;;;;;;;;;;26.00;44.80;;;;;;4985873;28;19929;-73
2023/07/13 12:15:14;;;;;;;;;;;26.10;45.10;;;;;;4983258;28;19929;-72
2023/07/13 12:17:42;;;;;;;;;;;26.10;44.70;;;;;;4980284;28;20236;-73
2023/07/13 12:20:18;;;;;;;;;;;26.10;44.10;;;;;;4985183;28;20017;-72
2023/07/13 12:22:46;;;;;;;;;;;26.10;44.50;;;;;;4983732;28;19926;-73
2023/07/13 12:25:13;;;;;;;;;;;26.10;44.60;;;;;;4984423;28;19936;-73
2023/07/13 12:27:41;;;;;;;;;;;26.20;44.50;;;;;;4988039;28;19936;-73
2023/07/13 12:30:26;;;;;;;;;;;26.20;44.40;;;;;;4982096;28;19941;-73
2023/07/13 12:32:59;;;;;;;;;;;26.20;44.40;;;;;;4976634;28;19951;-74
2023/07/13 12:35:29;;;;;;;;;;;26.20;45.00;;;;;;4983296;28;19953;-72
2023/07/13 12:37:57;;;;;;;;;;;26.30;44.50;;;;;;4985038;28;19929;-73
2023/07/13 12:40:32;;;;;;;;;;;26.30;44.60;;;;;;4977972;28;20407;-73
2023/07/13 12:43:04;;;;;;;;;;;26.30;45.90;;;;;;4982372;28;19969;-74
2023/07/13 12:45:31;;;;;;;;;;;26.30;45.00;;;;;;4984895;28;19956;-72
2023/07/13 12:47:59;;;;;;;;;;;26.30;45.00;;;;;;4984128;28;19933;-73
2023/07/13 12:50:29;;;;;;;;;;;26.30;44.90;;;;;;4980091;28;19940;-74
2023/07/13 12:53:01;;;;;;;;;;;26.30;45.10;;;;;;4983760;28;19945;-73
2023/07/13 12:55:32;;;;;;;;;;;26.20;44.60;;;;;;4983741;28;19940;-73
2023/07/13 12:58:00;;;;;;;;;;;26.30;45.00;;;;;;4976004;28;19930;-75
2023/07/13 13:00:28;;;;;;;;;;;26.30;45.10;;;;;;4981800;28;20053;-73
2023/07/13 13:02:56;;;;;;;;;;;26.30;44.30;;;;;;4984710;28;19930;-74
2023/07/13 13:05:23;;;;;;;;;;;26.30;43.70;;;;;;4991254;28;19961;-72
2023/07/13 13:07:50;;;;;;;;;;;26.40;43.50;;;;;;4982547;28;20020;-74
2023/07/13 13:10:17;;;;;;;;;;;26.40;43.50;;;;;;4980790;28;19988;-73
2023/07/13 13:12:43;;;;;;;;;;;26.50;43.70;;;;;;4985636;28;20364;-74
2023/07/13 13:15:12;;;;;;;;;;;26.50;42.90;;;;;;4981015;28;20304;-73
2023/07/13 13:17:39;;;;;;;;;;;26.60;43.00;;;;;;4984838;28;20013;-73
2023/07/13 13:20:12;;;;;;;;;;;26.60;42.70;;;;;;4984891;28;20730;-74
2023/07/13 13:22:38;;;;;;;;;;;26.70;43.40;;;;;;4983148;28;20340;-73
2023/07/13 13:25:05;;;;;;;;;;;26.70;42.60;;;;;;4980134;28;19984;-74
2023/07/13 13:27:32;;;;;;;;;;;26.70;42.10;;;;;;4986939;28;19934;-73
2023/07/13 13:29:58;;;;;;;;;;;26.70;41.90;;;;;;4984520;28;19941;-73
2023/07/13 13:32:26;;;;;;;;;;;26.80;41.60;;;;;;4984131;28;19934;-73
2023/07/13 13:34:53;;;;;;;;;;;26.80;41.30;;;;;;4982277;28;20318;-74
2023/07/13 13:37:21;;;;;;;;;;;26.80;41.90;;;;;;4978968;28;20503;-73
2023/07/13 13:39:48;;;;;;;;;;;26.80;42.90;;;;;;4973499;28;19998;-74
2023/07/13 13:42:14;;;;;;;;;;;26.80;42.60;;;;;;4976481;28;19937;-73
2023/07/13 13:44:41;;;;;;;;;;;26.80;41.20;;;;;;4984335;28;20374;-73
2023/07/13 13:47:18;;;;;;;;;;;26.80;40.90;;;;;;4982751;28;20008;-74
2023/07/13 13:49:47;;;;;;;;;;;26.80;40.90;;;;;;4982349;28;19926;-74
2023/07/13 13:52:13;;;;;;;;;;;26.80;41.50;;;;;;4982390;28;19984;-73
2023/07/13 13:54:40;;;;;;;;;;;26.90;41.20;;;;;;4983326;28;19934;-73
2023/07/13 13:57:06;;;;;;;;;;;26.90;41.60;;;;;;4984574;28;20017;-74
2023/07/13 13:59:39;;;;;;;;;;;27.00;42.30;;;;;;4978229;28;19930;-74
2023/07/13 14:02:16;;;;;;;;;;;27.00;42.20;;;;;;4983307;28;19937;-73
2023/07/13 14:04:42;;;;;;;;;;;27.10;41.80;;;;;;4982511;28;19968;-74
2023/07/13 14:07:10;;;;;;;;;;;27.10;41.90;;;;;;4989048;28;19930;-75
2023/07/13 14:09:38;;;;;;;;;;;27.20;41.10;;;;;;4981886;28;20465;-74
2023/07/13 14:12:05;;;;;;;;;;;27.20;40.80;;;;;;4986406;28;19937;-74
2023/07/13 14:14:33;;;;;;;;;;;27.30;41.80;;;;;;4988041;28;19941;-75
2023/07/13 14:16:59;;;;;;;;;;;27.40;41.80;;;;;;4978497;28;20696;-75
2023/07/13 14:19:26;;;;;;;;;;;27.40;40.30;;;;;;4988033;28;19929;-73
2023/07/13 14:21:53;;;;;;;;;;;27.50;40.70;;;;;;4988423;28;19936;-73